createdAt,value
2022-11-08T00:00:20.222Z,98298.09
2022-11-08T00:02:48.111Z,98290.91
2022-11-08T00:05:34.571Z,98283.88
2022-11-08T00:08:22.287Z,98273.56
2022-11-08T00:11:08.411Z,98268.63
2022-11-08T00:13:54.843Z,98257.06
2022-11-08T00:16:22.393Z,98267.59
2022-11-08T00:18:49.856Z,98278.31
2022-11-08T00:21:17.529Z,98274.81
2022-11-08T00:23:45.046Z,98267.59
2022-11-08T00:26:12.525Z,98241.22
2022-11-08T00:28:40.035Z,98228.63
2022-11-08T00:31:07.730Z,98248.44
2022-11-08T00:33:35.363Z,98253.97
2022-11-08T00:36:03.901Z,98258.34
2022-11-08T00:38:31.402Z,98260.16
2022-11-08T00:40:58.945Z,98276.47
2022-11-08T00:43:26.540Z,98272.34
2022-11-08T00:45:54.047Z,98259.34
2022-11-08T00:48:21.662Z,98250.50
2022-11-08T00:50:49.196Z,98248.03
2022-11-08T00:53:16.677Z,98252.53
2022-11-08T00:55:44.253Z,98241.84
2022-11-08T00:58:11.759Z,98250.09
2022-11-08T01:00:39.258Z,98248.22
2022-11-08T01:03:21.892Z,98250.28
2022-11-08T01:05:51.377Z,98261.22
2022-11-08T01:08:21.029Z,98234.44
2022-11-08T01:10:51.059Z,98242.69
2022-11-08T01:13:19.080Z,98224.31
2022-11-08T01:15:47.076Z,98224.50
2022-11-08T01:18:17.912Z,98236.28
2022-11-08T01:20:48.431Z,98235.88
2022-11-08T01:23:18.694Z,98236.88
2022-11-08T01:25:47.718Z,98249.25
2022-11-08T01:28:16.245Z,98243.91
2022-11-08T01:30:44.929Z,98231.34
2022-11-08T01:33:13.235Z,98239.78
2022-11-08T01:35:44.361Z,98287.34
2022-11-08T01:38:11.878Z,98264.69
2022-11-08T01:40:48.029Z,98279.53
2022-11-08T01:43:30.887Z,98299.91
2022-11-08T01:46:29.824Z,98314.09
2022-11-08T01:49:15.733Z,98328.09
2022-11-08T01:51:47.490Z,98336.91
2022-11-08T01:54:21.014Z,98331.53
2022-11-08T01:56:49.364Z,98330.44
2022-11-08T01:59:19.162Z,98333.88
2022-11-08T02:01:47.687Z,98333.22
2022-11-08T02:04:16.286Z,98365.03
2022-11-08T02:06:44.516Z,98373.41
2022-11-08T02:09:14.279Z,98377.00
2022-11-08T02:11:42.242Z,98373.34
2022-11-08T02:14:11.029Z,98376.41
2022-11-08T02:16:38.550Z,98364.25
2022-11-08T02:19:12.026Z,98376.78
2022-11-08T02:21:52.546Z,98374.13
2022-11-08T02:24:20.102Z,98377.63
2022-11-08T02:26:51.637Z,98374.28
2022-11-08T02:29:37.085Z,98388.25
2022-11-08T02:32:06.491Z,98379.97
2022-11-08T02:34:36.875Z,98385.53
2022-11-08T02:37:06.727Z,98387.56
2022-11-08T02:39:34.406Z,98391.44
2022-11-08T02:42:02.919Z,98397.59
2022-11-08T02:44:30.593Z,98395.78
2022-11-08T02:46:58.211Z,98392.69
2022-11-08T02:49:26.068Z,98396.72
2022-11-08T02:51:53.974Z,98394.44
2022-11-08T02:54:21.633Z,98393.63
2022-11-08T02:56:49.249Z,98401.19
2022-11-08T02:59:17.128Z,98396.25
2022-11-08T03:01:44.751Z,98390.84
2022-11-08T03:04:12.497Z,98399.88
2022-11-08T03:06:40.143Z,98385.22
2022-11-08T03:09:07.679Z,98388.50
2022-11-08T03:11:35.236Z,98394.03
2022-11-08T03:14:03.009Z,98397.31
2022-11-08T03:16:30.525Z,98396.94
2022-11-08T03:18:58.330Z,98403.75
2022-11-08T03:21:27.248Z,98397.38
2022-11-08T03:23:54.773Z,98399.63
2022-11-08T03:26:22.542Z,98416.00
2022-11-08T03:28:50.038Z,98410.44
2022-11-08T03:31:17.507Z,98407.06
2022-11-08T03:33:45.014Z,98411.13
2022-11-08T03:36:12.884Z,98413.72
2022-11-08T03:38:40.371Z,98417.16
2022-11-08T03:41:07.889Z,98421.84
2022-11-08T03:43:35.379Z,98430.06
2022-11-08T03:46:02.882Z,98431.41
2022-11-08T03:48:30.510Z,98438.34
2022-11-08T03:50:58.024Z,98435.03
2022-11-08T03:53:25.531Z,98431.91
2022-11-08T03:55:53.019Z,98424.66
2022-11-08T03:58:20.806Z,98426.06
2022-11-08T04:00:48.431Z,98417.41
2022-11-08T04:03:15.963Z,98430.13
2022-11-08T04:05:43.417Z,98424.94
2022-11-08T04:08:10.956Z,98417.31
2022-11-08T04:10:38.390Z,98417.50
2022-11-08T04:13:24.468Z,98419.09
2022-11-08T04:15:55.258Z,98430.13
2022-11-08T04:18:46.122Z,98434.78
2022-11-08T04:21:19.203Z,98428.03
2022-11-08T04:23:48.937Z,98430.03
2022-11-08T04:26:16.981Z,98421.75
2022-11-08T04:28:45.022Z,98424.25
2022-11-08T04:31:15.409Z,98418.91
2022-11-08T04:33:43.446Z,98423.41
2022-11-08T04:36:13.699Z,98422.59
2022-11-08T04:38:41.523Z,98422.59
2022-11-08T04:41:14.295Z,98414.97
2022-11-08T04:43:42.328Z,98402.16
2022-11-08T04:46:30.257Z,98408.22
2022-11-08T04:48:59.797Z,98405.09
2022-11-08T04:51:32.726Z,98411.81
2022-11-08T04:54:01.908Z,98403.16
2022-11-08T04:56:30.763Z,98407.03
2022-11-08T04:58:59.863Z,98405.56
2022-11-08T05:01:29.808Z,98401.63
2022-11-08T05:03:57.627Z,98404.44
2022-11-08T05:06:27.942Z,98396.81
2022-11-08T05:08:56.757Z,98394.50
2022-11-08T05:11:26.269Z,98400.41
2022-11-08T05:13:54.400Z,98396.72
2022-11-08T05:16:25.133Z,98400.41
2022-11-08T05:18:53.060Z,98409.22
2022-11-08T05:21:40.384Z,98398.56
2022-11-08T05:24:11.031Z,98411.22
2022-11-08T05:26:42.175Z,98417.38
2022-11-08T05:29:10.832Z,98417.75
2022-11-08T05:31:38.882Z,98415.06
2022-11-08T05:34:07.963Z,98413.25
2022-11-08T05:36:35.492Z,98424.09
2022-11-08T05:39:03.618Z,98429.41
2022-11-08T05:41:31.147Z,98424.44
2022-11-08T05:43:58.649Z,98417.00
2022-11-08T05:46:26.173Z,98429.50
2022-11-08T05:48:54.278Z,98427.84
2022-11-08T05:51:22.186Z,98424.53
2022-11-08T05:53:49.795Z,98424.53
2022-11-08T05:56:18.430Z,98417.91
2022-11-08T05:58:46.512Z,98408.47
2022-11-08T06:01:16.643Z,98408.09
2022-11-08T06:03:44.661Z,98410.75
2022-11-08T06:06:18.054Z,98402.56
2022-11-08T06:08:49.955Z,98407.34
2022-11-08T06:11:23.871Z,98391.34
2022-11-08T06:13:52.953Z,98393.41
2022-11-08T06:16:22.220Z,98398.06
2022-11-08T06:18:49.825Z,98396.06
2022-11-08T06:21:21.609Z,98396.22
2022-11-08T06:23:52.529Z,98406.88
2022-11-08T06:26:20.376Z,98399.91
2022-11-08T06:28:47.913Z,98408.72
2022-11-08T06:31:15.412Z,98414.06
2022-11-08T06:33:42.889Z,98413.06
2022-11-08T06:36:10.938Z,98413.22
2022-11-08T06:38:38.434Z,98416.91
2022-11-08T06:41:06.034Z,98415.88
2022-11-08T06:43:34.162Z,98414.72
2022-11-08T06:46:02.499Z,98414.72
2022-11-08T06:48:35.409Z,98416.53
2022-11-08T06:51:04.268Z,98417.53
2022-11-08T06:53:32.477Z,98419.56
2022-11-08T06:56:03.066Z,98419.75
2022-11-08T06:58:31.243Z,98412.31
2022-11-08T07:01:02.738Z,98415.13
2022-11-08T07:03:30.408Z,98417.16
2022-11-08T07:05:58.149Z,98416.50
2022-11-08T07:08:25.734Z,98411.53
2022-11-08T07:10:54.542Z,98413.72
2022-11-08T07:13:22.421Z,98412.44
2022-11-08T07:15:50.219Z,98404.47
2022-11-08T07:18:19.943Z,98415.28
2022-11-08T07:20:47.920Z,98418.13
2022-11-08T07:23:15.423Z,98419.16
2022-11-08T07:25:43.081Z,98416.84
2022-11-08T07:28:17.750Z,98417.00
2022-11-08T07:30:46.931Z,98412.34
2022-11-08T07:33:17.619Z,98406.00
2022-11-08T07:35:47.511Z,98412.97
2022-11-08T07:38:15.064Z,98413.97
2022-11-08T07:40:42.586Z,98421.44
2022-11-08T07:43:12.195Z,98411.25
2022-11-08T07:45:41.779Z,98410.72
2022-11-08T07:48:13.290Z,98408.72
2022-11-08T07:50:42.437Z,98414.50
2022-11-08T07:53:10.323Z,98412.31
2022-11-08T07:55:39.705Z,98410.47
2022-11-08T07:58:09.933Z,98411.94
2022-11-08T08:00:39.047Z,98400.94
2022-11-08T08:03:09.633Z,98407.34
2022-11-08T08:05:40.657Z,98400.84
2022-11-08T08:08:09.019Z,98399.66
2022-11-08T08:10:37.198Z,98395.59
2022-11-08T08:13:06.281Z,98393.22
2022-11-08T08:15:34.253Z,98396.56
2022-11-08T08:18:03.841Z,98394.50
2022-11-08T08:20:32.242Z,98388.00
2022-11-08T08:23:00.466Z,98381.47
2022-11-08T08:25:31.076Z,98382.09
2022-11-08T08:28:02.653Z,98394.25
2022-11-08T08:30:31.744Z,98394.91
2022-11-08T08:33:34.177Z,98393.88
2022-11-08T08:35:56.651Z,98394.34
2022-11-08T08:38:24.480Z,98393.97
2022-11-08T08:40:52.239Z,98386.63
2022-11-08T08:43:20.848Z,98387.91
2022-11-08T08:45:49.462Z,98386.50
2022-11-08T08:48:17.496Z,98388.19
2022-11-08T08:50:45.067Z,98383.84
2022-11-08T08:53:13.164Z,98390.84
2022-11-08T08:55:42.517Z,98386.88
2022-11-08T08:58:11.080Z,98390.09
2022-11-08T09:03:26.172Z,98388.28
2022-11-08T09:05:53.757Z,98381.28
2022-11-08T09:08:21.358Z,98379.34
2022-11-08T09:10:56.477Z,98378.88
2022-11-08T09:13:26.353Z,98373.09
2022-11-08T09:15:55.341Z,98375.09
2022-11-08T09:18:23.096Z,98366.84
2022-11-08T09:20:50.850Z,98362.34
2022-11-08T09:23:18.821Z,98361.53
2022-11-08T09:25:46.587Z,98362.34
2022-11-08T09:28:14.167Z,98362.53
2022-11-08T09:30:41.769Z,98368.69
2022-11-08T09:33:09.402Z,98359.22
2022-11-08T09:35:37.053Z,98362.72
2022-11-08T09:38:04.536Z,98354.72
2022-11-08T09:40:39.343Z,98348.56
2022-11-08T09:43:35.734Z,98351.22
2022-11-08T09:46:03.540Z,98349.59
2022-11-08T09:48:42.191Z,98342.41
2022-11-08T09:51:14.251Z,98337.09
2022-11-08T09:53:52.792Z,98344.44
2022-11-08T09:56:36.624Z,98339.91
2022-11-08T09:59:04.062Z,98335.63
2022-11-08T10:01:34.434Z,98332.75
2022-11-08T10:04:23.861Z,98332.38
2022-11-08T10:06:58.205Z,98336.53
2022-11-08T10:09:41.751Z,98329.00
2022-11-08T10:12:25.325Z,98329.66
2022-11-08T10:14:59.637Z,98324.31
2022-11-08T10:17:50.041Z,98330.94
2022-11-08T10:20:35.687Z,98321.38
2022-11-08T10:23:23.988Z,98317.16
2022-11-08T10:26:09.858Z,98313.53
2022-11-08T10:28:50.262Z,98313.47
2022-11-08T10:31:19.987Z,98318.53
2022-11-08T10:33:59.126Z,98305.56
2022-11-08T10:36:34.886Z,98300.81
2022-11-08T10:39:09.056Z,98301.78
2022-11-08T10:41:54.534Z,98305.25
2022-11-08T10:44:27.052Z,98299.25
2022-11-08T10:46:57.583Z,98293.50
2022-11-08T10:49:32.113Z,98298.69
2022-11-08T10:52:02.164Z,98302.47
2022-11-08T10:54:52.394Z,98303.72
2022-11-08T10:57:29.156Z,98302.19
2022-11-08T10:59:58.172Z,98300.66
2022-11-08T11:02:29.462Z,98297.38
2022-11-08T11:05:18.072Z,98281.22
2022-11-08T11:07:59.197Z,98294.56
2022-11-08T11:10:35.612Z,98284.19
2022-11-08T11:13:09.955Z,98275.69
2022-11-08T11:15:46.433Z,98274.81
2022-11-08T11:18:35.518Z,98282.16
2022-11-08T11:21:11.719Z,98285.63
2022-11-08T11:23:48.356Z,98286.38
2022-11-08T11:26:29.955Z,98284.91
2022-11-08T11:29:15.491Z,98292.06
2022-11-08T11:31:46.065Z,98285.69
2022-11-08T11:34:19.394Z,98282.41
2022-11-08T11:37:06.357Z,98275.50
2022-11-08T11:39:57.850Z,98279.47
2022-11-08T11:42:45.798Z,98260.13
2022-11-08T11:45:22.853Z,98258.94
2022-11-08T11:47:53.242Z,98256.47
2022-11-08T11:50:37.148Z,98261.81
2022-11-08T11:53:17.442Z,98257.25
2022-11-08T11:56:05.270Z,98244.91
2022-11-08T11:59:10.748Z,98244.75
2022-11-08T12:01:54.038Z,98241.69
2022-11-08T12:04:27.549Z,98230.34
2022-11-08T12:07:05.561Z,98227.25
2022-11-08T12:09:58.029Z,98227.88
2022-11-08T12:12:56.716Z,98228.31
2022-11-08T12:15:36.366Z,98225.84
2022-11-08T12:18:43.937Z,98225.22
2022-11-08T12:21:25.906Z,98211.69
2022-11-08T12:24:02.491Z,98207.78
2022-11-08T12:26:42.299Z,98206.75
2022-11-08T12:29:28.706Z,98206.59
2022-11-08T12:32:17.610Z,98203.13
2022-11-08T12:34:59.567Z,98204.34
2022-11-08T12:37:36.311Z,98204.16
2022-11-08T12:40:17.406Z,98205.56
2022-11-08T12:42:57.188Z,98202.50
2022-11-08T12:45:57.632Z,98201.91
2022-11-08T12:48:30.806Z,98188.09
2022-11-08T12:51:04.850Z,98194.47
2022-11-08T12:53:41.545Z,98187.06
2022-11-08T12:56:25.517Z,98184.56
2022-11-08T12:58:55.144Z,98183.16
2022-11-08T13:01:23.664Z,98173.25
2022-11-08T13:04:19.135Z,98173.44
2022-11-08T13:06:52.002Z,98152.44
2022-11-08T13:09:25.310Z,98161.09
2022-11-08T13:11:58.854Z,98149.59
2022-11-08T13:14:27.111Z,98144.84
2022-11-08T13:17:20.481Z,98150.19
2022-11-08T13:19:47.970Z,98136.63
2022-11-08T13:22:31.310Z,98132.50
2022-11-08T13:25:07.627Z,98129.59
2022-11-08T13:27:36.573Z,98143.00
2022-11-08T13:30:16.260Z,98165.00
2022-11-08T13:32:52.675Z,98158.81
2022-11-08T13:35:40.833Z,98172.16
2022-11-08T13:38:36.047Z,98167.53
2022-11-08T13:41:20.726Z,98172.84
2022-11-08T13:43:50.006Z,98158.28
2022-11-08T13:46:20.253Z,98161.75
2022-11-08T13:49:19.028Z,98164.81
2022-11-08T13:51:47.174Z,98152.31
2022-11-08T13:54:23.761Z,98170.78
2022-11-08T13:56:58.160Z,98168.94
2022-11-08T13:59:32.295Z,98164.44
2022-11-08T14:02:05.885Z,98160.41
2022-11-08T14:04:34.952Z,98157.31
2022-11-08T14:07:08.577Z,98148.69
2022-11-08T14:10:00.155Z,98161.22
2022-11-08T14:12:50.720Z,98157.34
2022-11-08T14:15:36.577Z,98157.13
2022-11-08T14:18:30.212Z,98152.81
2022-11-08T14:20:58.326Z,98157.56
2022-11-08T14:23:32.298Z,98155.69
2022-11-08T14:26:07.271Z,98150.97
2022-11-08T14:28:37.661Z,98151.41
2022-11-08T14:31:08.324Z,98156.34
2022-11-08T14:33:42.645Z,98152.22
2022-11-08T14:36:16.173Z,98159.25
2022-11-08T14:39:03.303Z,98164.78
2022-11-08T14:41:33.408Z,98165.44
2022-11-08T14:44:02.907Z,98167.06
2022-11-08T14:46:40.417Z,98157.63
2022-11-08T14:49:20.449Z,98162.09
2022-11-08T14:51:48.750Z,98164.78
2022-11-08T14:54:21.810Z,98158.81
2022-11-08T14:56:50.493Z,98158.81
2022-11-08T14:59:18.574Z,98155.94
2022-11-08T15:01:49.112Z,98168.47
2022-11-08T15:04:22.741Z,98162.88
2022-11-08T15:06:53.700Z,98167.78
2022-11-08T15:09:32.460Z,98162.19
2022-11-08T15:12:03.291Z,98158.25
2022-11-08T15:14:33.764Z,98154.75
2022-11-08T15:17:03.558Z,98158.03
2022-11-08T15:19:46.409Z,98151.41
2022-11-08T15:22:32.793Z,98145.63
2022-11-08T15:25:15.631Z,98147.88
2022-11-08T15:27:54.949Z,98154.66
2022-11-08T15:30:31.636Z,98139.84
2022-11-08T15:32:59.202Z,98140.88
2022-11-08T15:35:34.945Z,98130.38
2022-11-08T15:38:21.389Z,98127.72
2022-11-08T15:40:54.431Z,98136.34
2022-11-08T15:43:31.262Z,98140.88
2022-11-08T15:46:01.282Z,98141.50
2022-11-08T15:48:29.682Z,98136.78
2022-11-08T15:50:57.998Z,98142.75
2022-11-08T15:53:27.261Z,98144.63
2022-11-08T15:56:00.130Z,98144.63
2022-11-08T15:58:28.876Z,98151.38
2022-11-08T16:00:58.762Z,98145.63
2022-11-08T16:03:26.703Z,98151.97
2022-11-08T16:05:54.395Z,98145.78
2022-11-08T16:08:22.419Z,98151.25
2022-11-08T16:10:52.167Z,98143.84
2022-11-08T16:13:35.118Z,98147.31
2022-11-08T16:16:10.033Z,98143.38
2022-11-08T16:18:37.670Z,98140.69
2022-11-08T16:21:09.465Z,98141.06
2022-11-08T16:23:37.685Z,98149.47
2022-11-08T16:26:06.724Z,98154.00
2022-11-08T16:28:40.584Z,98147.19
2022-11-08T16:31:13.877Z,98156.41
2022-11-08T16:33:43.442Z,98160.72
2022-11-08T16:36:29.513Z,98167.47
2022-11-08T16:38:59.136Z,98178.91
2022-11-08T16:41:27.300Z,98183.13
2022-11-08T16:43:56.452Z,98181.81
2022-11-08T16:46:24.086Z,98152.38
2022-11-08T16:48:55.490Z,98144.25
2022-11-08T16:51:25.530Z,98140.25
2022-11-08T16:53:53.683Z,98128.28
2022-11-08T16:56:21.675Z,98145.91
2022-11-08T16:58:50.275Z,98145.25
2022-11-08T17:01:24.104Z,98142.38
2022-11-08T17:03:51.793Z,98145.69
2022-11-08T17:06:20.658Z,98140.56
2022-11-08T17:08:48.376Z,98149.38
2022-11-08T17:11:22.092Z,98144.22
2022-11-08T17:13:50.605Z,98142.97
2022-11-08T17:16:20.232Z,98142.91
2022-11-08T17:18:52.433Z,98143.66
2022-11-08T17:24:09.388Z,98145.66
2022-11-08T17:26:37.442Z,98151.00
2022-11-08T17:29:06.668Z,98158.00
2022-11-08T17:31:34.258Z,98165.78
2022-11-08T17:34:02.026Z,98168.66
2022-11-08T17:36:29.573Z,98168.00
2022-11-08T17:38:57.128Z,98171.69
2022-11-08T17:41:25.165Z,98169.22
2022-11-08T17:43:52.822Z,98183.28
2022-11-08T17:46:20.810Z,98175.84
2022-11-08T17:48:48.548Z,98179.91
2022-11-08T17:51:16.390Z,98187.25
2022-11-08T17:53:44.186Z,98183.31
2022-11-08T17:56:12.107Z,98191.03
2022-11-08T17:58:40.665Z,98196.72
2022-11-08T18:01:09.121Z,98192.78
2022-11-08T18:03:40.768Z,98189.97
2022-11-08T18:06:11.612Z,98186.06
2022-11-08T18:08:39.530Z,98192.50
2022-11-08T18:11:07.154Z,98190.28
2022-11-08T18:13:35.523Z,98190.94
2022-11-08T18:16:06.974Z,98208.19
2022-11-08T18:18:34.588Z,98200.22
2022-11-08T18:21:02.152Z,98205.38
2022-11-08T18:23:29.741Z,98205.53
2022-11-08T18:25:57.414Z,98208.19
2022-11-08T18:28:25.709Z,98202.69
2022-11-08T18:30:53.291Z,98208.84
2022-11-08T18:33:21.915Z,98217.66
2022-11-08T18:35:49.611Z,98224.00
2022-11-08T18:38:17.100Z,98223.81
2022-11-08T18:40:45.758Z,98223.63
2022-11-08T18:43:13.339Z,98227.28
2022-11-08T18:45:40.879Z,98228.78
2022-11-08T18:48:08.421Z,98240.91
2022-11-08T18:50:35.982Z,98252.53
2022-11-08T18:53:07.047Z,98244.56
2022-11-08T18:55:35.023Z,98252.53
2022-11-08T18:58:02.704Z,98261.38
2022-11-08T19:00:30.313Z,98261.38
2022-11-08T19:02:58.112Z,98264.88
2022-11-08T19:05:25.640Z,98266.72
2022-11-08T19:07:53.330Z,98268.53
2022-11-08T19:10:21.160Z,98268.09
2022-11-08T19:12:48.862Z,98270.13
2022-11-08T19:15:16.592Z,98269.66
2022-11-08T19:17:47.290Z,98282.69
2022-11-08T19:20:18.915Z,98279.94
2022-11-08T19:22:47.047Z,98293.16
2022-11-08T19:25:14.629Z,98289.84
2022-11-08T19:27:42.109Z,98289.22
2022-11-08T19:30:09.995Z,98291.91
2022-11-08T19:32:37.518Z,98299.88
2022-11-08T19:35:05.478Z,98310.34
2022-11-08T19:37:34.143Z,98310.69
2022-11-08T19:40:01.749Z,98310.69
2022-11-08T19:42:29.260Z,98318.53
2022-11-08T19:44:56.812Z,98320.16
2022-11-08T19:47:24.425Z,98320.38
2022-11-08T19:49:51.976Z,98325.69
2022-11-08T19:52:20.407Z,98321.34
2022-11-08T19:54:48.623Z,98324.00
2022-11-08T19:57:16.126Z,98325.19
2022-11-08T19:59:43.757Z,98331.09
2022-11-08T20:02:11.303Z,98329.97
2022-11-08T20:04:38.883Z,98334.19
2022-11-08T20:07:06.731Z,98341.53
2022-11-08T20:09:35.857Z,98342.34
2022-11-08T20:12:05.741Z,98338.66
2022-11-08T20:14:33.409Z,98339.53
2022-11-08T20:17:01.132Z,98354.94
2022-11-08T20:19:28.734Z,98344.75
2022-11-08T20:21:57.075Z,98338.41
2022-11-08T20:24:24.675Z,98341.72
2022-11-08T20:26:52.241Z,98344.03
2022-11-08T20:29:19.834Z,98350.66
2022-11-08T20:31:51.871Z,98355.59
2022-11-08T20:34:19.785Z,98355.09
2022-11-08T20:36:48.529Z,98354.72
2022-11-08T20:39:16.893Z,98355.19
2022-11-08T20:41:44.572Z,98364.09
2022-11-08T20:44:12.482Z,98371.88
2022-11-08T20:46:40.378Z,98369.78
2022-11-08T20:49:08.625Z,98374.00
2022-11-08T20:51:36.273Z,98376.56
2022-11-08T20:54:04.058Z,98380.13
2022-11-08T20:56:31.625Z,98387.56
2022-11-08T20:58:59.167Z,98393.59
2022-11-08T21:02:05.553Z,98393.28
2022-11-08T21:04:38.604Z,98396.97
2022-11-08T21:10:07.700Z,98395.22
2022-11-08T21:12:44.261Z,98395.22
2022-11-08T21:15:12.229Z,98394.53
2022-11-08T21:17:42.852Z,98401.50
2022-11-08T21:20:15.962Z,98402.53
2022-11-08T21:22:44.166Z,98395.91
2022-11-08T21:27:54.066Z,98405.22
2022-11-08T21:44:09.462Z,98418.19
2022-11-08T22:11:10.704Z,98432.16
2022-11-08T22:19:05.953Z,98446.88
2022-11-08T22:27:11.469Z,98445.59
2022-11-08T22:29:48.499Z,98449.53
2022-11-08T22:37:47.693Z,98458.75
2022-11-08T22:43:03.802Z,98467.06
2022-11-08T22:50:56.796Z,98478.91
2022-11-08T23:02:33.244Z,98493.56
2022-11-08T23:05:04.594Z,98502.53
2022-11-08T23:07:32.451Z,98497.56
2022-11-08T23:10:05.463Z,98499.75
2022-11-08T23:12:52.063Z,98511.44
2022-11-08T23:15:54.686Z,98513.28
2022-11-08T23:18:24.350Z,98513.56
2022-11-08T23:21:13.755Z,98511.19
2022-11-08T23:24:01.390Z,98518.47
2022-11-08T23:26:47.427Z,98521.41
2022-11-08T23:29:33.854Z,98520.22
2022-11-08T23:32:01.612Z,98540.56
2022-11-08T23:34:29.229Z,98542.38
2022-11-08T23:36:56.800Z,98541.75
2022-11-08T23:45:19.934Z,98549.63
2022-11-08T23:47:47.522Z,98544.75
2022-11-08T23:50:15.112Z,98548.72
2022-11-08T23:52:42.894Z,98550.56
2022-11-08T23:55:10.429Z,98558.25
2022-11-08T23:57:38.039Z,98565.78
